createdAt,value
2023-05-19T00:01:25.926Z,15.70
2023-05-19T00:05:08.360Z,15.70
2023-05-19T00:08:51.102Z,15.70
2023-05-19T00:12:33.162Z,15.60
2023-05-19T00:16:15.568Z,15.60
2023-05-19T00:19:57.944Z,15.60
2023-05-19T00:23:39.830Z,15.50
2023-05-19T00:27:21.724Z,15.40
2023-05-19T00:31:05.107Z,15.40
2023-05-19T00:34:48.469Z,15.40
2023-05-19T00:38:35.383Z,15.40
2023-05-19T00:42:17.245Z,15.40
2023-05-19T00:45:59.078Z,15.40
2023-05-19T00:49:41.059Z,15.30
2023-05-19T00:53:24.575Z,15.30
2023-05-19T00:57:06.773Z,15.30
2023-05-19T01:00:49.677Z,15.20
2023-05-19T01:04:34.886Z,15.20
2023-05-19T01:08:17.179Z,15.20
2023-05-19T01:12:00.150Z,15.10
2023-05-19T01:16:12.771Z,15.10
2023-05-19T01:20:06.634Z,15.00
2023-05-19T01:24:05.403Z,15.00
2023-05-19T01:28:16.085Z,14.90
2023-05-19T01:32:01.114Z,14.90
2023-05-19T01:35:44.593Z,14.90
2023-05-19T01:39:27.134Z,14.80
2023-05-19T01:43:12.137Z,14.80
2023-05-19T01:46:54.668Z,14.80
2023-05-19T01:50:36.600Z,14.80
2023-05-19T01:54:18.494Z,14.80
2023-05-19T01:58:37.877Z,14.80
2023-05-19T02:02:31.656Z,14.80
2023-05-19T02:06:51.368Z,14.80
2023-05-19T02:10:37.423Z,14.80
2023-05-19T02:14:35.476Z,14.80
2023-05-19T02:18:19.293Z,14.80
2023-05-19T02:22:01.209Z,14.80
2023-05-19T02:25:43.218Z,14.80
2023-05-19T02:29:25.148Z,14.70
2023-05-19T02:33:07.455Z,14.70
2023-05-19T02:36:50.038Z,14.60
2023-05-19T02:40:32.201Z,14.60
2023-05-19T02:44:14.321Z,14.60
2023-05-19T02:47:56.912Z,14.60
2023-05-19T02:51:38.842Z,14.50
2023-05-19T02:55:21.013Z,14.40
2023-05-19T02:59:02.904Z,14.40
2023-05-19T03:02:44.853Z,14.40
2023-05-19T03:06:26.852Z,14.40
2023-05-19T03:10:09.086Z,14.30
2023-05-19T03:13:50.920Z,14.30
2023-05-19T03:17:34.387Z,14.30
2023-05-19T03:21:16.472Z,14.30
2023-05-19T03:24:58.543Z,14.20
2023-05-19T03:28:40.468Z,14.20
2023-05-19T03:32:22.405Z,14.20
2023-05-19T03:36:04.648Z,14.10
2023-05-19T03:39:46.471Z,14.00
2023-05-19T03:43:28.345Z,14.00
2023-05-19T03:47:10.180Z,13.90
2023-05-19T03:50:52.122Z,13.90
2023-05-19T03:54:34.017Z,13.80
2023-05-19T03:58:16.411Z,13.80
2023-05-19T04:01:58.397Z,13.70
2023-05-19T04:05:40.467Z,13.70
2023-05-19T04:09:24.135Z,13.70
2023-05-19T04:13:06.104Z,13.60
2023-05-19T04:16:48.077Z,13.60
2023-05-19T04:20:30.121Z,13.50
2023-05-19T04:24:12.039Z,13.50
2023-05-19T04:27:57.611Z,13.50
2023-05-19T04:31:41.024Z,13.50
2023-05-19T04:35:23.118Z,13.50
2023-05-19T04:39:10.130Z,13.50
2023-05-19T04:42:52.940Z,13.50
2023-05-19T04:46:34.987Z,13.50
2023-05-19T04:50:17.085Z,13.50
2023-05-19T04:53:59.331Z,13.50
2023-05-19T04:57:41.758Z,13.50
2023-05-19T05:01:26.007Z,13.50
2023-05-19T05:05:09.452Z,13.50
2023-05-19T05:08:52.339Z,13.60
2023-05-19T05:12:35.182Z,13.60
2023-05-19T05:16:17.203Z,13.70
2023-05-19T05:19:59.395Z,13.70
2023-05-19T05:23:41.495Z,13.70
2023-05-19T05:27:23.412Z,13.70
2023-05-19T05:31:05.275Z,13.80
2023-05-19T05:34:47.231Z,13.80
2023-05-19T05:38:29.066Z,13.80
2023-05-19T05:42:12.102Z,13.80
2023-05-19T05:45:53.963Z,13.80
2023-05-19T05:49:38.165Z,13.70
2023-05-19T05:53:21.401Z,13.70
2023-05-19T05:57:04.179Z,13.70
2023-05-19T06:00:48.600Z,13.70
2023-05-19T06:04:31.143Z,13.70
2023-05-19T06:08:13.180Z,13.60
2023-05-19T06:11:55.072Z,13.60
2023-05-19T06:15:36.986Z,13.80
2023-05-19T06:19:20.132Z,13.90
2023-05-19T06:23:03.080Z,14.10
2023-05-19T06:26:45.086Z,14.20
2023-05-19T06:30:26.945Z,14.20
2023-05-19T06:34:12.324Z,14.30
2023-05-19T06:37:55.789Z,14.30
2023-05-19T06:41:37.653Z,14.40
2023-05-19T06:45:21.983Z,14.70
2023-05-19T06:49:07.043Z,15.10
2023-05-19T06:52:48.897Z,15.60
2023-05-19T06:56:30.829Z,16.10
2023-05-19T07:00:15.824Z,16.40
2023-05-19T07:03:59.835Z,16.80
2023-05-19T07:07:41.896Z,17.20
2023-05-19T07:11:24.342Z,17.50
2023-05-19T07:15:06.746Z,17.80
2023-05-19T07:18:48.711Z,17.90
2023-05-19T07:22:30.530Z,18.10
2023-05-19T07:26:12.406Z,18.30
2023-05-19T07:29:54.966Z,18.60
2023-05-19T07:33:38.029Z,18.90
2023-05-19T07:37:19.889Z,19.20
2023-05-19T07:41:02.680Z,19.60
2023-05-19T07:44:44.631Z,19.90
2023-05-19T07:48:26.604Z,19.90
2023-05-19T07:52:08.569Z,19.70
2023-05-19T07:55:50.435Z,19.50
2023-05-19T07:59:32.352Z,19.60
2023-05-19T08:03:17.901Z,19.90
2023-05-19T08:07:00.037Z,20.30
2023-05-19T08:10:41.929Z,20.80
2023-05-19T08:14:23.931Z,21.20
2023-05-19T08:18:05.963Z,21.70
2023-05-19T08:21:48.376Z,22.10
2023-05-19T08:25:30.241Z,22.60
2023-05-19T08:29:12.225Z,23.00
2023-05-19T08:32:54.083Z,23.20
2023-05-19T08:36:35.903Z,23.30
2023-05-19T08:40:18.580Z,23.40
2023-05-19T08:44:00.582Z,23.40
2023-05-19T08:47:43.038Z,23.40
2023-05-19T08:51:50.585Z,23.40
2023-05-19T08:55:38.754Z,23.30
2023-05-19T08:59:22.665Z,23.20
2023-05-19T09:03:17.495Z,23.10
2023-05-19T09:07:04.884Z,23.00
2023-05-19T09:10:46.797Z,23.00
2023-05-19T09:14:29.389Z,22.90
2023-05-19T09:18:17.532Z,22.90
2023-05-19T09:22:03.632Z,23.00
2023-05-19T09:25:53.054Z,23.20
2023-05-19T09:29:34.939Z,23.50
2023-05-19T09:33:20.272Z,23.70
2023-05-19T09:37:02.231Z,23.90
2023-05-19T09:40:44.218Z,24.20
2023-05-19T09:44:30.575Z,24.80
2023-05-19T09:48:14.130Z,25.50
2023-05-19T09:51:56.827Z,26.20
2023-05-19T09:55:38.763Z,26.90
2023-05-19T09:59:25.158Z,27.60
2023-05-19T10:03:07.809Z,28.30
2023-05-19T10:06:56.007Z,28.80
2023-05-19T10:10:39.121Z,29.30
2023-05-19T10:14:28.611Z,29.80
2023-05-19T10:18:11.131Z,30.20
2023-05-19T10:21:53.543Z,30.70
2023-05-19T10:25:37.477Z,30.90
2023-05-19T10:29:25.613Z,31.10
2023-05-19T10:33:12.230Z,31.50
2023-05-19T10:37:10.628Z,31.60
2023-05-19T10:41:27.457Z,31.30
2023-05-19T10:45:19.967Z,31.00
2023-05-19T10:49:01.802Z,30.90
2023-05-19T10:52:44.647Z,30.30
2023-05-19T10:56:33.884Z,30.10
2023-05-19T11:00:38.974Z,29.90
2023-05-19T11:04:51.845Z,29.70
2023-05-19T11:08:35.080Z,30.00
2023-05-19T11:12:25.041Z,30.70
2023-05-19T11:16:09.082Z,31.30
2023-05-19T11:19:59.424Z,31.80
2023-05-19T11:23:42.074Z,32.30
2023-05-19T11:27:28.808Z,32.20
2023-05-19T11:31:11.499Z,32.70
2023-05-19T11:34:55.033Z,33.40
2023-05-19T11:38:37.450Z,33.80
2023-05-19T11:42:19.767Z,33.70
2023-05-19T11:46:01.687Z,33.50
2023-05-19T11:49:44.925Z,32.90
2023-05-19T11:53:33.259Z,32.50
2023-05-19T11:57:16.716Z,32.20
2023-05-19T12:01:04.294Z,31.90
2023-05-19T12:04:47.280Z,31.90
2023-05-19T12:08:29.821Z,31.80
2023-05-19T12:12:17.158Z,31.70
2023-05-19T12:16:04.237Z,31.50
2023-05-19T12:19:48.439Z,31.20
2023-05-19T12:23:30.980Z,30.70
2023-05-19T12:27:26.508Z,30.40
2023-05-19T12:31:08.608Z,29.90
2023-05-19T12:34:51.206Z,29.50
2023-05-19T12:38:33.228Z,29.20
2023-05-19T12:42:16.620Z,29.10
2023-05-19T12:45:58.491Z,29.40
2023-05-19T12:49:56.901Z,29.90
2023-05-19T12:53:38.848Z,30.10
2023-05-19T12:57:21.585Z,30.00
2023-05-19T13:01:04.127Z,29.80
2023-05-19T13:04:46.123Z,29.20
2023-05-19T13:08:27.971Z,28.70
2023-05-19T13:12:09.897Z,28.30
2023-05-19T13:15:51.835Z,27.90
2023-05-19T13:19:34.167Z,27.60
2023-05-19T13:23:16.493Z,27.40
2023-05-19T13:26:58.518Z,27.10
2023-05-19T13:30:41.832Z,27.00
2023-05-19T13:34:23.947Z,26.90
2023-05-19T13:38:08.012Z,26.80
2023-05-19T13:41:50.532Z,26.60
2023-05-19T13:45:32.451Z,26.50
2023-05-19T13:49:14.325Z,26.30
2023-05-19T13:52:56.408Z,26.10
2023-05-19T13:56:38.754Z,26.00
2023-05-19T14:00:21.413Z,26.00
2023-05-19T14:04:03.470Z,26.10
2023-05-19T14:07:45.503Z,26.10
2023-05-19T14:11:27.381Z,26.00
2023-05-19T14:15:11.248Z,26.00
2023-05-19T14:18:53.438Z,26.10
2023-05-19T14:22:35.313Z,26.30
2023-05-19T14:26:17.205Z,26.40
2023-05-19T14:29:59.183Z,26.40
2023-05-19T14:33:41.502Z,26.40
2023-05-19T14:37:23.382Z,26.40
2023-05-19T14:41:07.911Z,26.40
2023-05-19T14:44:49.782Z,26.30
2023-05-19T14:48:32.104Z,26.40
2023-05-19T14:52:13.960Z,26.40
2023-05-19T14:55:56.008Z,26.40
2023-05-19T14:59:38.207Z,26.40
2023-05-19T15:03:20.185Z,26.40
2023-05-19T15:10:50.397Z,26.30
2023-05-19T15:14:32.271Z,26.00
2023-05-19T15:18:17.809Z,25.70
2023-05-19T15:21:59.723Z,25.30
2023-05-19T15:25:41.759Z,24.90
2023-05-19T15:29:23.738Z,24.60
2023-05-19T15:33:06.002Z,24.50
2023-05-19T15:36:47.951Z,24.40
2023-05-19T15:40:29.825Z,24.40
2023-05-19T15:44:11.701Z,24.50
2023-05-19T15:47:53.819Z,24.70
2023-05-19T15:51:35.880Z,24.70
2023-05-19T15:55:17.872Z,24.60
2023-05-19T15:58:59.801Z,24.40
2023-05-19T16:02:41.833Z,24.30
2023-05-19T16:06:24.691Z,24.20
2023-05-19T16:10:07.332Z,24.10
2023-05-19T16:13:49.286Z,24.00
2023-05-19T16:17:31.280Z,24.00
2023-05-19T16:21:13.231Z,24.00
2023-05-19T16:24:55.131Z,24.00
2023-05-19T16:28:37.121Z,24.10
2023-05-19T16:32:19.268Z,24.10
2023-05-19T16:36:01.196Z,24.10
2023-05-19T16:39:44.058Z,24.10
2023-05-19T16:43:26.337Z,24.10
2023-05-19T16:47:08.349Z,24.10
2023-05-19T16:50:50.208Z,24.10
2023-05-19T16:54:32.055Z,24.00
2023-05-19T16:58:13.965Z,23.90
2023-05-19T17:01:58.854Z,23.70
2023-05-19T17:05:41.989Z,23.60
2023-05-19T17:09:26.233Z,23.50
2023-05-19T17:13:08.203Z,23.50
2023-05-19T17:16:50.353Z,23.40
2023-05-19T17:20:32.523Z,23.20
2023-05-19T17:24:14.635Z,23.00
2023-05-19T17:27:56.504Z,22.80
2023-05-19T17:31:38.404Z,22.60
2023-05-19T17:35:20.499Z,22.60
2023-05-19T17:39:02.641Z,22.50
2023-05-19T17:42:44.477Z,22.60
2023-05-19T17:46:26.513Z,22.50
2023-05-19T17:50:09.175Z,22.40
2023-05-19T17:53:51.331Z,22.40
2023-05-19T17:57:35.201Z,22.30
2023-05-19T18:01:17.989Z,22.20
2023-05-19T18:05:00.297Z,22.10
2023-05-19T18:08:46.038Z,22.00
2023-05-19T18:12:27.940Z,22.00
2023-05-19T18:16:10.677Z,21.90
2023-05-19T18:19:52.671Z,21.80
2023-05-19T18:23:34.601Z,21.70
2023-05-19T18:27:16.432Z,21.60
2023-05-19T18:31:03.709Z,21.50
2023-05-19T18:34:45.804Z,21.40
2023-05-19T18:38:28.038Z,21.20
2023-05-19T18:42:10.013Z,21.10
2023-05-19T18:45:52.073Z,21.00
2023-05-19T18:49:34.023Z,20.90
2023-05-19T18:53:16.086Z,20.80
2023-05-19T18:56:58.315Z,20.70
2023-05-19T19:00:40.182Z,20.60
2023-05-19T19:04:22.579Z,20.50
2023-05-19T19:08:05.758Z,20.40
2023-05-19T19:11:47.669Z,20.30
2023-05-19T19:15:30.886Z,20.20
2023-05-19T19:19:12.775Z,20.10
2023-05-19T19:22:54.977Z,20.00
2023-05-19T19:26:38.064Z,19.90
2023-05-19T19:30:20.023Z,19.80
2023-05-19T19:34:08.028Z,19.80
2023-05-19T19:37:51.747Z,19.70
2023-05-19T19:41:33.883Z,19.60
2023-05-19T19:45:16.102Z,19.50
2023-05-19T19:49:00.399Z,19.30
2023-05-19T19:52:42.369Z,19.20
2023-05-19T19:56:25.118Z,19.10
2023-05-19T20:00:08.457Z,19.00
2023-05-19T20:03:50.554Z,19.00
2023-05-19T20:07:32.779Z,18.80
2023-05-19T20:11:15.324Z,18.70
2023-05-19T20:14:57.461Z,18.70
2023-05-19T20:18:39.687Z,18.60
2023-05-19T20:22:21.634Z,18.50
2023-05-19T20:26:12.571Z,18.50
2023-05-19T20:29:55.556Z,18.30
2023-05-19T20:33:37.472Z,18.20
2023-05-19T20:37:19.404Z,18.20
2023-05-19T20:41:02.175Z,18.10
2023-05-19T20:44:44.361Z,18.00
2023-05-19T20:48:26.338Z,18.00
2023-05-19T20:52:08.417Z,17.90
2023-05-19T20:55:50.692Z,17.80
2023-05-19T20:59:33.411Z,17.70
2023-05-19T21:03:15.942Z,17.70
2023-05-19T21:06:57.893Z,17.60
2023-05-19T21:10:39.961Z,17.50
2023-05-19T21:14:23.027Z,17.40
2023-05-19T21:18:05.184Z,17.40
2023-05-19T21:21:47.842Z,17.30
2023-05-19T21:25:31.072Z,17.30
2023-05-19T21:29:12.935Z,17.20
2023-05-19T21:32:54.986Z,17.10
2023-05-19T21:36:36.969Z,17.00
2023-05-19T21:40:18.849Z,16.90
2023-05-19T21:44:00.722Z,16.90
2023-05-19T21:47:42.607Z,16.80
2023-05-19T21:51:24.492Z,16.70
2023-05-19T21:55:07.146Z,16.60
2023-05-19T21:58:48.993Z,16.60
2023-05-19T22:02:30.935Z,16.50
2023-05-19T22:06:12.918Z,16.40
2023-05-19T22:09:54.845Z,16.30
2023-05-19T22:13:41.029Z,16.30
2023-05-19T22:17:22.975Z,16.20
2023-05-19T22:21:04.996Z,16.10
2023-05-19T22:24:46.946Z,16.10
2023-05-19T22:28:28.761Z,16.00
2023-05-19T22:32:12.143Z,16.00
2023-05-19T22:35:54.233Z,15.80
2023-05-19T22:39:36.640Z,15.80
2023-05-19T22:43:18.528Z,15.70
2023-05-19T22:47:00.386Z,15.70
2023-05-19T22:50:42.257Z,15.60
2023-05-19T22:54:24.168Z,15.60
2023-05-19T22:58:06.725Z,15.50
2023-05-19T23:01:48.673Z,15.50
2023-05-19T23:05:30.602Z,15.40
2023-05-19T23:09:12.774Z,15.30
2023-05-19T23:12:54.872Z,15.30
2023-05-19T23:16:36.780Z,15.20
2023-05-19T23:20:18.740Z,15.20
2023-05-19T23:24:00.709Z,15.10
2023-05-19T23:27:42.574Z,15.10
2023-05-19T23:31:24.542Z,15.00
2023-05-19T23:35:15.696Z,14.90
2023-05-19T23:38:57.572Z,14.90
2023-05-19T23:42:39.656Z,14.80
2023-05-19T23:46:21.624Z,14.80
2023-05-19T23:50:03.688Z,14.70
2023-05-19T23:53:45.647Z,14.70
2023-05-19T23:57:27.515Z,14.60
